»·PEaware :: N74KW KTOA-0O2

N74KW :: KTOA-0O2

FLIGHT INFORMATION

Flight Status: Arrived
Operator: Privately registered:
United States
More flights under this callsign
Pilot: Charles C. (26995)
Aircraft: MCDONNELL-DOUGLAS SKYTRAIN C-47
(DC3)
More flights by this aircraft type
Origin: KTOA Zamperini
United States
Destination: 0O2 Baker
United States
More flights between these airports :: More routes between these airports
Route: +LIMBO V64 SLI V8 PDZ V442 APLES V394 DAG
File this flight plan on PilotEdge
Remarks:
Altitude:
(Current/Filed)
11,000ft
Speed:
(Current/Filed)
150kts
Departed: 09-Aug-20 08:20 AM
Arrived: 09-Aug-20 09:24 AM
Distance/Time
Traveled:
143nm/1:04
Distance/Time
To Go:
Arrived

Flight Plot

Page will automatically refresh every two minutes.

Flight plan parsing failed; only flown route is shown


Map Options




Map Legend


Flown Route
Filed Route
Departure Airport
Arrival Airport
Navaid (VOR, NDB)
Fix

Horizontal Profiles

Position Reports

Time Latitude Longitude Heading Altitude Ground
Speed
09-Aug-20 07:46 33.801601 -118.341420 219 106ft 0kts
09-Aug-20 07:47 33.801601 -118.341420 219 106ft 0kts
09-Aug-20 07:48 33.801601 -118.341420 219 106ft 0kts
09-Aug-20 07:49 33.801414 -118.341299 92 107ft 0kts
09-Aug-20 07:50 33.801414 -118.341299 92 107ft 0kts
09-Aug-20 07:51 33.801414 -118.341299 92 107ft 0kts
09-Aug-20 07:52 33.801414 -118.341299 92 107ft 0kts
09-Aug-20 07:53 33.801414 -118.341299 92 107ft 0kts
09-Aug-20 07:54 33.801414 -118.341299 92 107ft 0kts
09-Aug-20 07:55 33.801414 -118.341299 92 107ft 0kts
09-Aug-20 07:56 33.801414 -118.341299 92 107ft 0kts
09-Aug-20 07:57 33.801414 -118.341299 92 107ft 0kts
09-Aug-20 07:58 33.801414 -118.341299 92 107ft 0kts
09-Aug-20 07:59 33.801414 -118.341299 92 107ft 0kts
09-Aug-20 08:00 33.801414 -118.341299 92 107ft 0kts
09-Aug-20 08:01 33.801414 -118.341299 92 107ft 0kts
09-Aug-20 08:02 33.801414 -118.341299 92 107ft 0kts
09-Aug-20 08:03 33.801414 -118.341299 92 107ft 0kts
09-Aug-20 08:04 33.801414 -118.341299 92 107ft 0kts
09-Aug-20 08:05 33.801414 -118.341299 92 107ft 0kts
09-Aug-20 08:06 33.801414 -118.341299 92 107ft 0kts
09-Aug-20 08:07 33.801414 -118.341299 92 107ft 0kts
09-Aug-20 08:08 33.801414 -118.341299 92 107ft 0kts
09-Aug-20 08:09 33.801414 -118.341299 92 107ft 0kts
09-Aug-20 08:10 33.801414 -118.341299 92 107ft 0kts
09-Aug-20 08:11 33.801414 -118.341299 92 107ft 0kts
09-Aug-20 08:12 33.801414 -118.341299 92 107ft 0kts
09-Aug-20 08:13 33.801414 -118.341299 92 107ft 0kts
09-Aug-20 08:14 33.801414 -118.341299 92 107ft 0kts
09-Aug-20 08:15 33.801414 -118.341299 92 107ft 0kts
09-Aug-20 08:16 33.800553 -118.339556 129 108ft 23kts
09-Aug-20 08:17 33.798176 -118.334147 37 109ft 14kts
09-Aug-20 08:18 33.799107 -118.333300 47 105ft 1kts
09-Aug-20 08:19 33.807972 -118.345760 303 226ft 116kts
09-Aug-20 08:20 33.822447 -118.381257 300 1060ft 120kts
09-Aug-20 08:21 33.839852 -118.414110 301 1792ft 115kts
09-Aug-20 08:22 33.845639 -118.445747 204 2492ft 109kts
09-Aug-20 08:23 33.813648 -118.441337 183 3038ft 116kts
09-Aug-20 08:24 33.782387 -118.437155 154 3698ft 118kts
09-Aug-20 08:25 33.776299 -118.402421 85 4442ft 111kts
09-Aug-20 08:26 33.779726 -118.363934 86 5019ft 125kts
09-Aug-20 08:27 33.779291 -118.315969 99 5045ft 158kts
09-Aug-20 08:28 33.764590 -118.263938 97 5044ft 168kts
09-Aug-20 08:29 33.778482 -118.211475 63 5046ft 166kts
09-Aug-20 08:30 33.793755 -118.159247 68 5048ft 165kts
09-Aug-20 08:31 33.801995 -118.105465 89 5049ft 165kts
09-Aug-20 08:32 33.800364 -118.050735 92 5049ft 161kts
09-Aug-20 08:33 33.796729 -117.997301 78 5026ft 160kts
09-Aug-20 08:34 33.810820 -117.946830 72 5043ft 159kts
09-Aug-20 08:35 33.822879 -117.897837 73 5038ft 148kts
09-Aug-20 08:36 33.834328 -117.850752 73 5036ft 144kts
09-Aug-20 08:37 33.845773 -117.803602 73 5039ft 151kts
09-Aug-20 08:38 33.857870 -117.753917 73 5040ft 156kts
09-Aug-20 08:39 33.870782 -117.703615 71 5042ft 157kts
09-Aug-20 08:40 33.886680 -117.654249 68 5046ft 158kts
09-Aug-20 08:41 33.904277 -117.601270 68 5436ft 163kts
09-Aug-20 08:42 33.918703 -117.552872 70 6091ft 148kts
09-Aug-20 08:44 33.940209 -117.511110 51 6618ft 146kts
09-Aug-20 08:45 33.977753 -117.494403 23 7111ft 147kts
09-Aug-20 08:46 34.014888 -117.473407 28 7636ft 147kts
09-Aug-20 08:47 34.050926 -117.449209 28 8184ft 147kts
09-Aug-20 08:48 34.085970 -117.425686 28 8858ft 143kts
09-Aug-20 08:49 34.123168 -117.401738 28 9065ft 165kts
09-Aug-20 08:50 34.165651 -117.374995 28 9061ft 174kts
09-Aug-20 08:51 34.207549 -117.347300 29 9063ft 171kts
09-Aug-20 08:52 34.249274 -117.319310 28 9062ft 170kts
09-Aug-20 08:53 34.290987 -117.291954 26 9368ft 169kts
09-Aug-20 08:54 34.331705 -117.266764 26 9981ft 161kts
09-Aug-20 08:55 34.371439 -117.242321 26 10531ft 159kts
09-Aug-20 08:56 34.410981 -117.218154 26 11048ft 159kts
09-Aug-20 08:57 34.453050 -117.192535 27 11064ft 174kts
09-Aug-20 08:58 34.496593 -117.165998 27 11057ft 175kts
09-Aug-20 08:59 34.540309 -117.139361 27 11048ft 176kts
09-Aug-20 08:59 34.576758 -117.117173 27 11042ft 176kts
09-Aug-20 09:01 34.624490 -117.081019 51 11043ft 174kts
09-Aug-20 09:02 34.652767 -117.033146 62 11042ft 174kts
09-Aug-20 09:02 34.672196 -116.989980 63 10938ft 180kts
09-Aug-20 09:03 34.702082 -116.935225 55 10182ft 204kts
09-Aug-20 09:05 34.742626 -116.870301 53 9398ft 207kts
09-Aug-20 09:05 34.773432 -116.825206 51 8841ft 207kts
09-Aug-20 09:06 34.811328 -116.772386 49 8190ft 208kts
09-Aug-20 09:08 34.857500 -116.712720 41 7509ft 204kts
09-Aug-20 09:08 34.891053 -116.677272 41 7518ft 183kts
09-Aug-20 09:09 34.926835 -116.638712 48 7517ft 158kts
09-Aug-20 09:10 34.954001 -116.600632 66 7532ft 141kts
09-Aug-20 09:11 34.973270 -116.562903 41 7525ft 131kts
09-Aug-20 09:12 35.000140 -116.530709 48 7526ft 137kts
09-Aug-20 09:13 35.025245 -116.488133 54 6940ft 172kts
09-Aug-20 09:14 35.053038 -116.435409 57 5906ft 193kts
09-Aug-20 09:15 35.082064 -116.379075 57 4964ft 196kts
09-Aug-20 09:16 35.110933 -116.323334 57 4132ft 189kts
09-Aug-20 09:17 35.138679 -116.269718 57 3560ft 178kts
09-Aug-20 09:18 35.163603 -116.221187 60 3448ft 168kts
09-Aug-20 09:19 35.187380 -116.169822 57 2934ft 176kts
09-Aug-20 09:20 35.214320 -116.120932 49 2347ft 167kts
09-Aug-20 09:21 35.248439 -116.083384 36 1597ft 152kts
09-Aug-20 09:22 35.280347 -116.079657 350 1029ft 99kts
09-Aug-20 09:23 35.289425 -116.082254 167 926ft 26kts
09-Aug-20 09:24 35.287687 -116.081185 250 927ft 0kts
09-Aug-20 09:25 35.287687 -116.081185 250 927ft 0kts
09-Aug-20 09:26 35.287687 -116.081185 250 927ft 0kts
09-Aug-20 09:27 35.287687 -116.081185 250 927ft 0kts
09-Aug-20 09:28 35.287687 -116.081185 250 927ft 0kts
09-Aug-20 09:29 35.287687 -116.081185 250 927ft 0kts
09-Aug-20 09:30 35.287687 -116.081185 250 927ft 0kts
09-Aug-20 09:31 35.287687 -116.081185 250 927ft 0kts
09-Aug-20 09:32 35.287687 -116.081185 250 927ft 0kts
09-Aug-20 09:33 35.287687 -116.081185 250 927ft 0kts
09-Aug-20 09:34 35.287687 -116.081185 250 927ft 0kts
09-Aug-20 09:35 35.287687 -116.081185 250 927ft 0kts
09-Aug-20 09:36 35.287687 -116.081185 250 927ft 0kts

Navigation Log

Ident Type
Flight plan parsing failed, navigation log unavailable